createdAt,value
2019-01-28T00:01:47.789Z,13.37
2019-01-28T00:04:16.897Z,15.53
2019-01-28T00:06:45.028Z,8.97
2019-01-28T00:09:13.249Z,9.47
2019-01-28T00:11:41.548Z,8.23
2019-01-28T00:14:09.776Z,10.47
2019-01-28T00:16:38.103Z,11.97
2019-01-28T00:19:06.321Z,15.87
2019-01-28T00:21:34.713Z,9.00
2019-01-28T00:24:02.922Z,19.60
2019-01-28T00:26:31.181Z,10.53
2019-01-28T00:28:59.558Z,8.93
2019-01-28T00:31:27.749Z,9.30
2019-01-28T00:33:56.063Z,9.23
2019-01-28T00:36:24.221Z,11.33
2019-01-28T00:38:52.501Z,11.17
2019-01-28T00:41:20.938Z,10.13
2019-01-28T00:43:49.121Z,10.97
2019-01-28T00:46:17.318Z,9.97
2019-01-28T00:48:45.580Z,10.63
2019-01-28T00:51:13.836Z,12.40
2019-01-28T00:53:42.061Z,9.70
2019-01-28T00:56:10.396Z,13.40
2019-01-28T00:58:38.777Z,11.97
2019-01-28T01:01:07.145Z,10.10
2019-01-28T01:03:35.447Z,11.80
2019-01-28T01:06:03.818Z,8.13
2019-01-28T01:08:32.050Z,13.53
2019-01-28T01:11:00.319Z,11.30
2019-01-28T01:13:28.757Z,11.80
2019-01-28T01:15:57.027Z,8.63
2019-01-28T01:18:25.213Z,15.87
2019-01-28T01:20:53.507Z,11.60
2019-01-28T01:23:21.735Z,10.93
2019-01-28T01:25:50.029Z,22.73
2019-01-28T01:28:18.204Z,11.83
2019-01-28T01:30:46.355Z,12.60
2019-01-28T01:33:14.556Z,11.80
2019-01-28T01:35:42.936Z,7.30
2019-01-28T01:38:11.100Z,8.33
2019-01-28T01:40:39.341Z,12.03
2019-01-28T01:43:07.645Z,11.87
2019-01-28T01:45:35.722Z,21.57
2019-01-28T01:48:03.974Z,9.30
2019-01-28T01:50:32.145Z,10.20
2019-01-28T01:53:00.376Z,10.30
2019-01-28T01:55:28.444Z,18.97
2019-01-28T01:57:56.602Z,11.73
2019-01-28T02:00:24.744Z,12.10
2019-01-28T02:02:52.881Z,17.77
2019-01-28T02:05:20.959Z,12.83
2019-01-28T02:07:49.191Z,18.00
2019-01-28T02:10:17.266Z,10.07
2019-01-28T02:12:45.519Z,19.07
2019-01-28T02:15:14.788Z,16.93
2019-01-28T02:17:42.870Z,12.80
2019-01-28T02:20:11.230Z,15.40
2019-01-28T02:22:39.463Z,16.47
2019-01-28T02:25:09.128Z,8.90
2019-01-28T02:27:37.306Z,12.20
2019-01-28T02:30:07.388Z,14.70
2019-01-28T02:32:35.748Z,10.93
2019-01-28T02:35:05.086Z,9.70
2019-01-28T02:37:33.199Z,17.40
2019-01-28T02:40:01.359Z,14.47
2019-01-28T02:42:29.539Z,11.30
2019-01-28T02:44:57.849Z,11.73
2019-01-28T02:47:27.047Z,13.47
2019-01-28T02:49:55.193Z,8.67
2019-01-28T02:52:23.395Z,11.83
2019-01-28T02:54:51.571Z,14.17
2019-01-28T02:57:19.799Z,12.10
2019-01-28T02:59:47.927Z,11.60
2019-01-28T03:02:15.987Z,8.83
2019-01-28T03:04:44.293Z,10.00
2019-01-28T03:07:12.380Z,8.90
2019-01-28T03:09:40.567Z,8.90
2019-01-28T03:12:08.898Z,14.90
2019-01-28T03:14:37.101Z,13.93
2019-01-28T03:17:06.886Z,11.90
2019-01-28T03:19:35.273Z,14.00
2019-01-28T03:22:04.616Z,11.57
2019-01-28T03:24:32.779Z,13.50
2019-01-28T03:27:00.854Z,11.73
2019-01-28T03:29:29.048Z,7.93
2019-01-28T03:31:57.274Z,10.03
2019-01-28T03:34:25.347Z,14.57
2019-01-28T03:36:53.553Z,18.10
2019-01-28T03:39:21.794Z,13.80
2019-01-28T03:41:49.866Z,9.83
2019-01-28T03:44:17.969Z,12.20
2019-01-28T03:46:46.209Z,10.87
2019-01-28T03:49:14.408Z,10.03
2019-01-28T03:51:42.561Z,14.70
2019-01-28T03:54:10.707Z,11.03
2019-01-28T03:56:38.905Z,9.20
2019-01-28T03:59:07.100Z,12.27
2019-01-28T04:01:35.463Z,9.60
2019-01-28T04:04:03.643Z,14.27
2019-01-28T04:06:31.969Z,8.93
2019-01-28T04:09:00.156Z,7.73
2019-01-28T04:11:28.249Z,11.83
2019-01-28T04:13:56.376Z,12.07
2019-01-28T04:16:24.649Z,15.43
2019-01-28T04:18:52.838Z,16.73
2019-01-28T04:21:21.062Z,9.47
2019-01-28T04:23:50.643Z,13.40
2019-01-28T04:26:20.490Z,10.23
2019-01-28T04:28:48.641Z,10.83
2019-01-28T04:31:16.733Z,13.03
2019-01-28T04:33:45.013Z,13.80
2019-01-28T04:36:13.288Z,29.60
2019-01-28T04:38:41.447Z,17.07
2019-01-28T04:41:09.634Z,27.77
2019-01-28T04:43:37.891Z,28.03
2019-01-28T04:46:06.085Z,14.63
2019-01-28T04:48:34.264Z,11.90
2019-01-28T04:51:02.490Z,14.87
2019-01-28T04:53:30.555Z,10.23
2019-01-28T04:55:58.749Z,13.50
2019-01-28T04:58:26.835Z,12.83
2019-01-28T05:00:55.129Z,16.47
2019-01-28T05:03:23.272Z,14.97
2019-01-28T05:05:51.525Z,13.40
2019-01-28T05:08:19.657Z,12.13
2019-01-28T05:10:47.753Z,12.30
2019-01-28T05:13:15.904Z,10.37
2019-01-28T05:15:43.957Z,12.33
2019-01-28T05:18:12.223Z,14.20
2019-01-28T05:20:40.402Z,9.70
2019-01-28T05:23:08.605Z,16.40
2019-01-28T05:25:36.771Z,9.50
2019-01-28T05:28:05.167Z,10.67
2019-01-28T05:30:33.383Z,16.50
2019-01-28T05:33:01.623Z,11.10
2019-01-28T05:35:29.724Z,9.13
2019-01-28T05:37:57.912Z,15.07
2019-01-28T05:40:26.133Z,12.37
2019-01-28T05:42:54.415Z,9.83
2019-01-28T05:45:22.994Z,9.80
2019-01-28T05:47:51.299Z,12.33
2019-01-28T05:50:19.513Z,11.40
2019-01-28T05:52:47.699Z,11.43
2019-01-28T05:55:16.817Z,13.67
2019-01-28T05:57:45.013Z,16.00
2019-01-28T06:00:15.533Z,13.43
2019-01-28T06:02:43.595Z,15.43
2019-01-28T06:05:11.811Z,12.23
2019-01-28T06:07:40.014Z,9.50
2019-01-28T06:10:09.790Z,14.23
2019-01-28T06:12:38.143Z,14.37
2019-01-28T06:15:07.803Z,15.07
2019-01-28T06:17:38.977Z,11.87
2019-01-28T06:20:07.301Z,17.40
2019-01-28T06:22:35.554Z,10.67
2019-01-28T06:25:04.660Z,13.23
2019-01-28T06:27:32.843Z,9.73
2019-01-28T06:30:00.999Z,12.77
2019-01-28T06:32:29.278Z,6.73
2019-01-28T06:34:57.548Z,15.07
2019-01-28T06:37:25.642Z,17.77
2019-01-28T06:39:53.797Z,9.90
2019-01-28T06:42:22.019Z,13.97
2019-01-28T06:44:50.267Z,8.97
2019-01-28T06:47:18.457Z,10.53
2019-01-28T06:49:46.703Z,10.93
2019-01-28T06:52:14.978Z,13.37
2019-01-28T06:54:43.184Z,12.77
2019-01-28T06:57:11.415Z,14.60
2019-01-28T06:59:39.600Z,14.40
2019-01-28T07:02:07.704Z,14.23
2019-01-28T07:04:35.905Z,10.33
2019-01-28T07:07:04.137Z,9.23
2019-01-28T07:09:32.207Z,12.63
2019-01-28T07:12:00.479Z,14.97
2019-01-28T07:14:28.673Z,15.03
2019-01-28T07:16:56.759Z,16.23
2019-01-28T07:19:29.200Z,16.27
2019-01-28T07:21:54.705Z,16.37
2019-01-28T07:24:22.898Z,12.80
2019-01-28T07:26:51.157Z,15.33
2019-01-28T07:29:19.342Z,7.60
2019-01-28T07:31:47.531Z,11.77
2019-01-28T07:34:15.756Z,13.93
2019-01-28T07:36:43.963Z,13.13
2019-01-28T07:39:12.081Z,12.63
2019-01-28T07:41:40.289Z,14.03
2019-01-28T07:44:08.501Z,13.03
2019-01-28T07:46:36.553Z,16.23
2019-01-28T07:49:04.830Z,13.90
2019-01-28T07:51:33.038Z,16.80
2019-01-28T07:54:01.153Z,18.13
2019-01-28T07:56:29.245Z,10.63
2019-01-28T07:58:57.356Z,14.57
2019-01-28T08:01:25.937Z,14.20
2019-01-28T08:03:54.142Z,10.17
2019-01-28T08:06:22.272Z,12.83
2019-01-28T08:08:50.623Z,11.13
2019-01-28T08:11:18.822Z,12.93
2019-01-28T08:13:46.980Z,11.77
2019-01-28T08:16:15.093Z,11.23
2019-01-28T08:18:43.141Z,9.83
2019-01-28T08:21:11.519Z,12.10
2019-01-28T08:23:39.788Z,10.73
2019-01-28T08:26:08.075Z,6.97
2019-01-28T08:28:37.011Z,7.40
2019-01-28T08:31:05.459Z,12.27
2019-01-28T08:33:33.635Z,12.07
2019-01-28T08:36:01.898Z,11.73
2019-01-28T08:38:30.036Z,8.47
2019-01-28T08:40:58.268Z,13.03
2019-01-28T08:43:26.394Z,9.67
2019-01-28T08:45:54.746Z,11.47
2019-01-28T08:48:22.847Z,13.50
2019-01-28T08:50:51.064Z,12.13
2019-01-28T08:53:19.212Z,9.57
2019-01-28T08:55:47.454Z,15.50
2019-01-28T08:58:15.769Z,10.23
2019-01-28T09:00:44.012Z,8.33
2019-01-28T09:03:12.278Z,10.63
2019-01-28T09:05:40.502Z,8.97
2019-01-28T09:08:08.970Z,10.97
2019-01-28T09:10:37.228Z,10.10
2019-01-28T09:13:05.636Z,8.90
2019-01-28T09:15:34.530Z,10.03
2019-01-28T09:18:02.804Z,9.00
2019-01-28T09:20:31.626Z,11.17
2019-01-28T09:22:59.755Z,10.73
2019-01-28T09:25:27.828Z,8.77
2019-01-28T09:27:56.034Z,8.63
2019-01-28T09:30:25.303Z,9.37
2019-01-28T09:32:53.372Z,9.97
2019-01-28T09:35:21.655Z,13.47
2019-01-28T09:37:49.951Z,8.27
2019-01-28T09:40:19.863Z,7.67
2019-01-28T09:42:48.239Z,7.67
2019-01-28T09:45:18.071Z,8.73
2019-01-28T09:47:46.235Z,10.97
2019-01-28T09:50:15.336Z,14.13
2019-01-28T09:52:43.705Z,11.20
2019-01-28T09:55:12.837Z,13.20
2019-01-28T09:57:41.077Z,16.77
2019-01-28T10:00:11.203Z,16.33
2019-01-28T10:02:39.304Z,18.63
2019-01-28T10:05:07.387Z,18.27
2019-01-28T10:07:35.624Z,13.97
2019-01-28T10:10:05.433Z,17.00
2019-01-28T10:12:34.641Z,18.13
2019-01-28T10:15:04.803Z,17.70
2019-01-28T10:17:33.032Z,13.43
2019-01-28T10:20:01.167Z,16.40
2019-01-28T10:22:29.568Z,13.07
2019-01-28T10:24:57.662Z,15.33
2019-01-28T10:27:25.695Z,14.73
2019-01-28T10:29:54.001Z,14.53
2019-01-28T10:32:22.288Z,19.23
2019-01-28T10:34:51.679Z,13.23
2019-01-28T10:37:20.093Z,17.53
2019-01-28T10:39:48.343Z,18.50
2019-01-28T10:42:16.613Z,16.57
2019-01-28T10:44:44.866Z,17.27
2019-01-28T10:47:13.157Z,15.70
2019-01-28T10:49:41.449Z,14.10
2019-01-28T10:52:09.944Z,16.83
2019-01-28T10:54:39.338Z,14.80
2019-01-28T10:57:07.389Z,15.50
2019-01-28T10:59:35.645Z,14.37
2019-01-28T11:02:04.089Z,17.23
2019-01-28T11:04:32.331Z,15.70
2019-01-28T11:07:00.415Z,12.60
2019-01-28T11:09:28.894Z,15.57
2019-01-28T11:11:57.271Z,15.27
2019-01-28T11:14:25.534Z,17.23
2019-01-28T11:16:54.952Z,17.20
2019-01-28T11:19:23.303Z,16.53
2019-01-28T11:21:51.532Z,15.77
2019-01-28T11:24:19.772Z,9.40
2019-01-28T11:26:48.066Z,15.90
2019-01-28T11:29:16.344Z,17.17
2019-01-28T11:31:45.124Z,9.70
2019-01-28T11:34:13.518Z,14.50
2019-01-28T11:36:41.726Z,17.43
2019-01-28T11:39:10.292Z,15.30
2019-01-28T11:41:38.647Z,17.07
2019-01-28T11:44:07.055Z,19.03
2019-01-28T11:46:35.373Z,19.93
2019-01-28T11:49:06.074Z,18.20
2019-01-28T11:51:33.498Z,18.00
2019-01-28T11:54:01.629Z,16.27
2019-01-28T11:56:30.004Z,15.87
2019-01-28T11:58:58.118Z,15.80
2019-01-28T12:01:27.335Z,17.17
2019-01-28T12:03:55.543Z,12.80
2019-01-28T12:06:23.769Z,16.53
2019-01-28T12:08:51.840Z,14.47
2019-01-28T12:11:20.139Z,14.83
2019-01-28T12:13:48.334Z,13.10
2019-01-28T12:16:16.627Z,14.30
2019-01-28T12:18:44.849Z,18.23
2019-01-28T12:21:12.946Z,16.23
2019-01-28T12:23:41.197Z,16.13
2019-01-28T12:26:09.480Z,16.97
2019-01-28T12:28:37.668Z,16.77
2019-01-28T12:31:05.833Z,17.87
2019-01-28T12:33:34.308Z,19.17
2019-01-28T12:36:03.695Z,17.87
2019-01-28T12:38:31.932Z,16.77
2019-01-28T12:41:00.178Z,12.70
2019-01-28T12:43:28.304Z,15.80
2019-01-28T12:45:56.517Z,18.07
2019-01-28T12:48:24.688Z,17.93
2019-01-28T12:50:52.845Z,17.80
2019-01-28T12:53:21.019Z,15.10
2019-01-28T12:55:49.247Z,17.47
2019-01-28T12:58:17.542Z,17.90
2019-01-28T13:00:47.546Z,16.50
2019-01-28T13:03:15.811Z,14.97
2019-01-28T13:05:44.112Z,16.33
2019-01-28T13:08:12.259Z,16.43
2019-01-28T13:10:40.504Z,18.67
2019-01-28T13:13:08.730Z,21.73
2019-01-28T13:15:37.063Z,19.30
2019-01-28T13:18:05.270Z,19.03
2019-01-28T13:20:33.470Z,22.17
2019-01-28T13:23:01.544Z,20.90
2019-01-28T13:25:31.391Z,21.33
2019-01-28T13:27:59.505Z,18.70
2019-01-28T13:30:30.640Z,26.80
2019-01-28T13:32:59.099Z,19.40
2019-01-28T13:35:27.383Z,20.97
2019-01-28T13:37:55.655Z,21.87
2019-01-28T13:40:23.863Z,23.13
2019-01-28T13:42:52.106Z,23.03
2019-01-28T13:45:20.802Z,19.90
2019-01-28T13:47:50.303Z,20.07
2019-01-28T13:50:21.143Z,16.13
2019-01-28T13:52:49.418Z,25.43
2019-01-28T13:55:18.133Z,28.20
2019-01-28T13:57:46.484Z,22.20
2019-01-28T14:00:16.189Z,12.73
2019-01-28T14:02:44.888Z,13.37
2019-01-28T14:05:13.048Z,20.10
2019-01-28T14:07:41.229Z,21.03
2019-01-28T14:10:10.848Z,12.30
2019-01-28T14:12:38.933Z,16.37
2019-01-28T14:15:08.823Z,23.33
2019-01-28T14:17:37.021Z,18.00
2019-01-28T14:20:06.940Z,16.97
2019-01-28T14:22:35.213Z,13.97
2019-01-28T14:25:03.669Z,18.53
2019-01-28T14:27:33.174Z,18.63
2019-01-28T14:30:01.408Z,19.83
2019-01-28T14:32:29.734Z,20.17
2019-01-28T14:34:58.014Z,22.73
2019-01-28T14:37:26.176Z,20.03
2019-01-28T14:39:54.460Z,20.13
2019-01-28T14:42:22.744Z,22.17
2019-01-28T14:44:50.921Z,19.10
2019-01-28T14:47:19.110Z,19.60
2019-01-28T14:49:54.394Z,21.50
2019-01-28T14:52:20.050Z,23.43
2019-01-28T14:54:48.524Z,23.17
2019-01-28T14:57:16.704Z,18.53
2019-01-28T14:59:44.867Z,20.13
2019-01-28T15:02:13.121Z,19.20
2019-01-28T15:04:41.324Z,19.97
2019-01-28T15:07:09.774Z,16.60
2019-01-28T15:09:37.973Z,22.33
2019-01-28T15:12:06.107Z,24.23
2019-01-28T15:14:34.314Z,23.53
2019-01-28T15:17:02.485Z,18.80
2019-01-28T15:19:30.982Z,19.53
2019-01-28T15:21:59.378Z,22.47
2019-01-28T15:24:27.515Z,21.50
2019-01-28T15:26:55.797Z,22.40
2019-01-28T15:29:24.017Z,24.97
2019-01-28T15:31:52.169Z,20.10
2019-01-28T15:34:20.526Z,18.13
2019-01-28T15:36:48.726Z,20.63
2019-01-28T15:39:16.996Z,22.60
2019-01-28T15:41:45.184Z,24.33
2019-01-28T15:44:13.390Z,20.17
2019-01-28T15:46:41.472Z,26.20
2019-01-28T15:49:09.727Z,26.63
2019-01-28T15:51:39.183Z,22.10
2019-01-28T15:54:07.339Z,27.30
2019-01-28T15:56:36.614Z,22.47
2019-01-28T15:59:04.864Z,21.27
2019-01-28T16:01:33.083Z,24.00
2019-01-28T16:04:01.333Z,21.67
2019-01-28T16:06:29.479Z,24.27
2019-01-28T16:08:57.765Z,21.47
2019-01-28T16:11:26.057Z,27.23
2019-01-28T16:13:54.306Z,30.10
2019-01-28T16:16:22.641Z,27.53
2019-01-28T16:18:50.979Z,27.77
2019-01-28T16:21:19.136Z,23.00
2019-01-28T16:23:47.379Z,22.83
2019-01-28T16:26:15.594Z,23.50
2019-01-28T16:28:43.835Z,18.77
2019-01-28T16:31:12.043Z,24.43
2019-01-28T16:33:40.200Z,22.47
2019-01-28T16:36:08.499Z,22.47
2019-01-28T16:38:36.607Z,21.87
2019-01-28T16:41:04.824Z,25.00
2019-01-28T16:43:33.096Z,30.80
2019-01-28T16:46:01.236Z,24.47
2019-01-28T16:48:29.594Z,24.17
2019-01-28T16:50:57.754Z,24.87
2019-01-28T16:53:27.293Z,28.70
2019-01-28T16:55:55.744Z,26.60
2019-01-28T16:58:23.939Z,26.87
2019-01-28T17:00:52.112Z,23.93
2019-01-28T17:03:20.477Z,28.40
2019-01-28T17:05:48.629Z,33.43
2019-01-28T17:08:16.871Z,37.67
2019-01-28T17:10:45.383Z,31.07
2019-01-28T17:13:13.593Z,36.70
2019-01-28T17:15:41.878Z,33.47
2019-01-28T17:18:10.019Z,36.63
2019-01-28T17:20:38.273Z,31.90
2019-01-28T17:23:07.116Z,33.67
2019-01-28T17:25:37.159Z,31.13
2019-01-28T17:28:05.394Z,43.33
2019-01-28T17:30:34.990Z,28.57
2019-01-28T17:33:03.306Z,33.07
2019-01-28T17:35:31.455Z,25.07
2019-01-28T17:37:59.643Z,31.63
2019-01-28T17:40:29.140Z,28.80
2019-01-28T17:42:57.395Z,37.30
2019-01-28T17:45:26.367Z,33.20
2019-01-28T17:47:54.491Z,31.23
2019-01-28T17:50:24.706Z,33.20
2019-01-28T17:52:53.885Z,35.03
2019-01-28T17:55:22.105Z,29.50
2019-01-28T17:57:50.242Z,26.83
2019-01-28T18:00:29.291Z,33.93
2019-01-28T18:02:51.063Z,42.83
2019-01-28T18:05:19.170Z,42.17
2019-01-28T18:07:47.462Z,42.67
2019-01-28T18:10:16.673Z,38.60
2019-01-28T18:12:44.959Z,28.47
2019-01-28T18:15:15.651Z,33.70
2019-01-28T18:17:43.935Z,24.20
2019-01-28T18:20:13.576Z,29.77
2019-01-28T18:22:43.864Z,29.37
2019-01-28T18:25:13.430Z,27.63
2019-01-28T18:27:41.541Z,32.73
2019-01-28T18:30:11.428Z,40.03
2019-01-28T18:32:39.859Z,41.47
2019-01-28T18:35:08.214Z,35.67
2019-01-28T18:37:36.422Z,28.77
2019-01-28T18:40:06.258Z,29.80
2019-01-28T18:42:34.568Z,37.43
2019-01-28T18:45:02.792Z,33.20
2019-01-28T18:47:31.438Z,34.93
2019-01-28T18:49:59.823Z,35.57
2019-01-28T18:52:29.228Z,39.77
2019-01-28T18:54:57.503Z,43.63
2019-01-28T18:57:25.747Z,46.97
2019-01-28T18:59:54.065Z,38.37
2019-01-28T19:02:23.439Z,33.80
2019-01-28T19:04:51.719Z,35.57
2019-01-28T19:07:21.501Z,37.77
2019-01-28T19:09:50.341Z,38.57
2019-01-28T19:12:20.159Z,48.47
2019-01-28T19:14:50.065Z,36.30
2019-01-28T19:17:19.849Z,44.80
2019-01-28T19:19:49.684Z,48.03
2019-01-28T19:22:19.550Z,37.57
2019-01-28T19:24:48.104Z,33.57
2019-01-28T19:27:16.374Z,33.73
2019-01-28T19:29:44.754Z,32.77
2019-01-28T19:32:13.028Z,34.00
2019-01-28T19:34:41.324Z,33.07
2019-01-28T19:37:09.494Z,37.03
2019-01-28T19:39:37.772Z,33.97
2019-01-28T19:42:06.129Z,36.33
2019-01-28T19:44:34.313Z,40.83
2019-01-28T19:47:02.644Z,36.83
2019-01-28T19:49:30.976Z,43.40
2019-01-28T19:51:59.295Z,39.23
2019-01-28T19:54:27.542Z,41.50
2019-01-28T19:56:55.804Z,37.20
2019-01-28T19:59:23.967Z,39.50
2019-01-28T20:01:52.066Z,40.10
2019-01-28T20:04:20.295Z,45.60
2019-01-28T20:06:48.513Z,39.23
2019-01-28T20:09:16.778Z,49.37
2019-01-28T20:11:45.063Z,49.37
2019-01-28T20:14:13.235Z,48.50
2019-01-28T20:16:41.454Z,43.90
2019-01-28T20:19:09.786Z,42.77
2019-01-28T20:21:38.164Z,33.30
2019-01-28T20:24:06.482Z,34.50
2019-01-28T20:26:34.738Z,35.67
2019-01-28T20:29:02.898Z,34.10
2019-01-28T20:31:31.163Z,39.37
2019-01-28T20:34:00.533Z,28.50
2019-01-28T20:36:28.745Z,42.47
2019-01-28T20:38:57.024Z,38.97
2019-01-28T20:41:25.293Z,44.70
2019-01-28T20:43:53.593Z,46.43
2019-01-28T20:46:21.987Z,49.53
2019-01-28T20:48:50.204Z,49.40
2019-01-28T20:51:18.527Z,39.53
2019-01-28T20:53:48.061Z,43.10
2019-01-28T20:56:16.335Z,46.43
2019-01-28T20:58:44.621Z,40.83
2019-01-28T21:01:12.971Z,31.03
2019-01-28T21:03:41.220Z,39.20
2019-01-28T21:06:09.426Z,31.40
2019-01-28T21:08:37.739Z,44.87
2019-01-28T21:11:05.935Z,45.83
2019-01-28T21:13:34.256Z,47.97
2019-01-28T21:16:02.593Z,46.10
2019-01-28T21:18:30.956Z,33.50
2019-01-28T21:20:59.264Z,45.43
2019-01-28T21:23:27.544Z,43.07
2019-01-28T21:25:55.638Z,44.87
2019-01-28T21:28:23.926Z,43.10
2019-01-28T21:30:52.144Z,40.40
2019-01-28T21:33:20.280Z,39.20
2019-01-28T21:35:50.001Z,38.67
2019-01-28T21:38:19.747Z,37.73
2019-01-28T21:40:48.023Z,20.30
2019-01-28T21:43:16.315Z,35.50
2019-01-28T21:45:44.499Z,38.13
2019-01-28T21:48:13.895Z,42.80
2019-01-28T21:50:42.124Z,39.57
2019-01-28T21:53:10.548Z,35.53
2019-01-28T21:55:38.655Z,30.20
2019-01-28T21:58:07.011Z,41.77
2019-01-28T22:00:35.126Z,23.87
2019-01-28T22:03:03.358Z,26.43
2019-01-28T22:05:32.521Z,32.13
2019-01-28T22:08:00.839Z,27.57
2019-01-28T22:10:29.176Z,36.97
2019-01-28T22:12:57.504Z,24.13
2019-01-28T22:15:25.680Z,26.30
2019-01-28T22:17:53.783Z,36.77
2019-01-28T22:20:22.109Z,20.07
2019-01-28T22:22:50.127Z,25.03
2019-01-28T22:25:19.626Z,33.50
2019-01-28T22:27:47.963Z,40.53
2019-01-28T22:30:17.706Z,34.43
2019-01-28T22:32:45.933Z,24.57
2019-01-28T22:35:14.129Z,25.13
2019-01-28T22:37:42.274Z,37.03
2019-01-28T22:40:12.065Z,40.40
2019-01-28T22:42:40.393Z,40.07
2019-01-28T22:45:10.109Z,22.77
2019-01-28T22:47:38.376Z,40.07
2019-01-28T22:50:08.109Z,35.40
2019-01-28T22:52:36.480Z,29.30
2019-01-28T22:55:05.519Z,34.30
2019-01-28T22:57:33.625Z,39.80
2019-01-28T23:00:01.729Z,35.47
2019-01-28T23:02:31.531Z,39.87
2019-01-28T23:04:59.803Z,25.60
2019-01-28T23:07:28.006Z,25.77
2019-01-28T23:09:56.169Z,32.30
2019-01-28T23:12:24.359Z,41.10
2019-01-28T23:14:52.616Z,23.77
2019-01-28T23:17:20.935Z,35.33
2019-01-28T23:19:49.154Z,21.50
2019-01-28T23:22:17.539Z,25.80
2019-01-28T23:24:45.676Z,34.33
2019-01-28T23:27:14.107Z,21.50
2019-01-28T23:29:42.499Z,37.07
2019-01-28T23:32:10.696Z,22.80
2019-01-28T23:34:38.841Z,34.77
2019-01-28T23:37:07.093Z,23.40
2019-01-28T23:39:35.334Z,36.33
2019-01-28T23:42:03.482Z,40.70
2019-01-28T23:44:31.664Z,38.80
2019-01-28T23:47:00.031Z,36.77
2019-01-28T23:49:28.385Z,32.70
2019-01-28T23:51:56.553Z,41.67
2019-01-28T23:54:24.764Z,40.17
2019-01-28T23:56:53.043Z,40.47
2019-01-28T23:59:21.271Z,37.77
